Erie, Minnesota
Current Conditions -  °F | °C
As of 10:55 PM on Saturday 22 Nov 2014 (Local Time) from KTVF Reporting Station
Broken Clouds Broken Clouds  
Wind Chill: -3°   Ceiling: 12000
Heat Index:   Visibility: 10mi
Dew Point: -1°   Wind: 9mph
Humidity: 87%   Direction: 170°S
Pressure: 29.38"   Gusts: NA
Location:  48.0638°N, 95.6851°W
Report Text: KTVF 230455Z AUTO 17008KT 10SM SCT012 BKN120 01/M01 A2938 RMK AO1
Loading
Personal Weather Stations






























Interactive Weather Map New forecast layout! Learn more

10-Day Weather Forecast

Advertisements
Track Severe Weather on mobile